createdAt,value
2023-05-19T00:04:10.234Z,103014.97
2023-05-19T00:06:37.144Z,103015.53
2023-05-19T00:09:09.498Z,103013.09
2023-05-19T00:11:38.166Z,103018.53
2023-05-19T00:14:07.272Z,103013.94
2023-05-19T00:16:34.616Z,103008.59
2023-05-19T00:19:04.127Z,103015.78
2023-05-19T00:24:25.590Z,102997.03
2023-05-19T00:26:52.194Z,103001.56
2023-05-19T00:29:19.206Z,102992.41
2023-05-19T00:31:46.624Z,103002.31
2023-05-19T00:34:13.212Z,102996.66
2023-05-19T00:36:39.809Z,103000.72
2023-05-19T00:39:06.461Z,102991.22
2023-05-19T00:44:27.662Z,102994.66
2023-05-19T00:46:54.389Z,102994.09
2023-05-19T00:49:21.741Z,102991.50
2023-05-19T00:51:49.097Z,102990.34
2023-05-19T00:54:16.185Z,102990.66
2023-05-19T00:56:42.813Z,102998.28
2023-05-19T00:59:09.435Z,102990.44
2023-05-19T01:01:36.716Z,102989.00
2023-05-19T01:04:04.674Z,102994.88
2023-05-19T01:06:31.326Z,102995.31
2023-05-19T01:08:58.222Z,102990.91
2023-05-19T01:11:24.818Z,102991.81
2023-05-19T01:13:51.669Z,102997.78
2023-05-19T01:16:40.325Z,102996.41
2023-05-19T01:19:31.016Z,102992.56
2023-05-19T01:22:13.172Z,102994.41
2023-05-19T01:25:01.834Z,102998.09
2023-05-19T01:28:01.275Z,102999.78
2023-05-19T01:33:44.512Z,102992.13
2023-05-19T01:36:13.657Z,102985.63
2023-05-19T01:38:40.716Z,102980.41
2023-05-19T01:44:02.600Z,102972.13
2023-05-19T01:46:29.631Z,102973.94
2023-05-19T01:48:56.835Z,102972.75
2023-05-19T01:51:23.545Z,102978.31
2023-05-19T01:53:50.329Z,102982.19
2023-05-19T01:56:24.560Z,102982.84
2023-05-19T01:59:01.914Z,102970.47
2023-05-19T02:01:38.705Z,102962.81
2023-05-19T02:04:14.850Z,102967.97
2023-05-19T02:07:09.530Z,102967.16
2023-05-19T02:09:54.272Z,102976.31
2023-05-19T02:12:27.117Z,102973.88
2023-05-19T02:15:06.462Z,102976.31
2023-05-19T02:17:36.634Z,102970.75
2023-05-19T02:20:05.528Z,102972.00
2023-05-19T02:22:32.466Z,102976.94
2023-05-19T02:24:59.139Z,102967.81
2023-05-19T02:27:26.415Z,102969.06
2023-05-19T02:29:53.613Z,102963.00
2023-05-19T02:32:21.121Z,102967.09
2023-05-19T02:34:48.038Z,102960.63
2023-05-19T02:37:15.804Z,102963.69
2023-05-19T02:39:42.987Z,102954.34
2023-05-19T02:42:10.051Z,102951.09
2023-05-19T02:44:36.709Z,102954.19
2023-05-19T02:47:03.263Z,102951.75
2023-05-19T02:49:35.941Z,102947.06
2023-05-19T02:52:05.007Z,102949.91
2023-05-19T02:54:32.441Z,102949.53
2023-05-19T02:56:59.147Z,102940.56
2023-05-19T02:59:25.952Z,102940.78
2023-05-19T03:01:56.462Z,102943.28
2023-05-19T03:04:23.209Z,102945.34
2023-05-19T03:06:50.239Z,102939.22
2023-05-19T03:09:17.007Z,102941.50
2023-05-19T03:11:43.502Z,102932.13
2023-05-19T03:14:10.268Z,102930.72
2023-05-19T03:16:37.076Z,102937.06
2023-05-19T03:19:03.898Z,102928.88
2023-05-19T03:21:32.273Z,102935.22
2023-05-19T03:23:58.998Z,102932.19
2023-05-19T03:26:25.573Z,102940.38
2023-05-19T03:28:52.266Z,102941.59
2023-05-19T03:31:19.125Z,102931.22
2023-05-19T03:33:45.776Z,102941.25
2023-05-19T03:36:12.770Z,102931.06
2023-05-19T03:38:39.556Z,102926.41
2023-05-19T03:41:06.160Z,102932.13
2023-05-19T03:43:32.929Z,102932.56
2023-05-19T03:45:59.582Z,102926.88
2023-05-19T03:48:26.824Z,102924.25
2023-05-19T03:50:54.534Z,102927.94
2023-05-19T03:53:21.508Z,102926.06
2023-05-19T03:55:49.782Z,102930.56
2023-05-19T03:58:16.670Z,102931.16
2023-05-19T04:00:43.663Z,102929.72
2023-05-19T04:03:10.437Z,102925.00
2023-05-19T04:05:37.353Z,102940.25
2023-05-19T04:08:04.030Z,102938.63
2023-05-19T04:10:31.084Z,102934.34
2023-05-19T04:12:57.845Z,102933.38
2023-05-19T04:15:24.633Z,102936.03
2023-05-19T04:17:51.250Z,102937.88
2023-05-19T04:20:18.000Z,102935.00
2023-05-19T04:22:44.620Z,102939.06
2023-05-19T04:25:11.840Z,102934.97
2023-05-19T04:27:39.312Z,102934.75
2023-05-19T04:30:06.566Z,102940.47
2023-05-19T04:32:33.411Z,102941.25
2023-05-19T04:35:00.065Z,102942.31
2023-05-19T04:37:26.728Z,102943.09
2023-05-19T04:39:54.314Z,102935.56
2023-05-19T04:42:21.207Z,102937.53
2023-05-19T04:44:49.301Z,102943.22
2023-05-19T04:47:16.232Z,102947.06
2023-05-19T04:49:43.137Z,102941.31
2023-05-19T04:55:05.630Z,102948.03
2023-05-19T04:57:32.389Z,102950.47
2023-05-19T05:00:00.449Z,102950.84
2023-05-19T05:02:30.179Z,102948.19
2023-05-19T05:04:56.852Z,102947.41
2023-05-19T05:07:23.770Z,102953.63
2023-05-19T05:09:50.572Z,102945.88
2023-05-19T05:12:18.676Z,102955.00
2023-05-19T05:14:45.742Z,102954.94
2023-05-19T05:17:13.267Z,102957.69
2023-05-19T05:19:40.483Z,102959.63
2023-05-19T05:22:07.554Z,102952.94
2023-05-19T05:24:34.509Z,102952.56
2023-05-19T05:27:01.529Z,102947.09
2023-05-19T05:29:28.220Z,102953.50
2023-05-19T05:31:54.796Z,102950.91
2023-05-19T05:34:21.494Z,102948.53
2023-05-19T05:36:48.393Z,102945.34
2023-05-19T05:39:15.022Z,102941.66
2023-05-19T05:41:41.696Z,102948.63
2023-05-19T05:44:08.379Z,102946.81
2023-05-19T05:46:36.242Z,102952.25
2023-05-19T05:49:03.180Z,102951.81
2023-05-19T05:51:30.186Z,102960.16
2023-05-19T05:53:57.861Z,102958.88
2023-05-19T05:56:25.025Z,102960.13
2023-05-19T05:58:52.105Z,102957.88
2023-05-19T06:01:18.698Z,102950.53
2023-05-19T06:03:45.399Z,102954.31
2023-05-19T06:06:12.269Z,102955.66
2023-05-19T06:08:38.962Z,102943.66
2023-05-19T06:14:03.809Z,102947.56
2023-05-19T06:16:30.430Z,102952.66
2023-05-19T06:18:58.858Z,102954.75
2023-05-19T06:21:25.785Z,102948.81
2023-05-19T06:23:52.359Z,102945.00
2023-05-19T06:26:18.920Z,102944.06
2023-05-19T06:28:45.498Z,102942.31
2023-05-19T06:31:12.099Z,102937.06
2023-05-19T06:33:38.750Z,102942.28
2023-05-19T06:36:05.591Z,102939.25
2023-05-19T06:38:32.622Z,102945.59
2023-05-19T06:40:59.252Z,102938.88
2023-05-19T06:43:26.035Z,102937.13
2023-05-19T06:45:52.876Z,102938.28
2023-05-19T06:48:19.388Z,102939.75
2023-05-19T06:50:49.257Z,102947.03
2023-05-19T06:56:11.939Z,102934.19
2023-05-19T06:58:39.498Z,102940.94
2023-05-19T07:04:00.489Z,102949.34
2023-05-19T07:06:27.696Z,102948.59
2023-05-19T07:08:54.454Z,102944.09
2023-05-19T07:11:21.778Z,102946.50
2023-05-19T07:13:48.388Z,102939.81
2023-05-19T07:16:15.137Z,102934.47
2023-05-19T07:18:41.831Z,102928.31
2023-05-19T07:24:02.569Z,102928.84
2023-05-19T07:26:29.261Z,102930.19
2023-05-19T07:28:57.020Z,102925.06
2023-05-19T07:34:17.753Z,102930.72
2023-05-19T07:36:44.577Z,102931.78
2023-05-19T07:39:11.300Z,102934.22
2023-05-19T07:41:38.096Z,102933.38
2023-05-19T07:44:07.830Z,102938.78
2023-05-19T07:46:35.650Z,102928.88
2023-05-19T07:49:02.560Z,102933.94
2023-05-19T07:51:29.288Z,102929.94
2023-05-19T07:54:13.233Z,102925.34
2023-05-19T07:56:40.090Z,102929.66
2023-05-19T07:59:08.170Z,102926.94
2023-05-19T08:01:34.861Z,102923.72
2023-05-19T08:04:01.605Z,102921.28
2023-05-19T08:06:30.096Z,102919.66
2023-05-19T08:08:56.700Z,102913.47
2023-05-19T08:11:23.592Z,102908.91
2023-05-19T08:13:50.480Z,102909.66
2023-05-19T08:16:17.146Z,102910.72
2023-05-19T08:18:44.272Z,102907.19
2023-05-19T08:21:10.963Z,102904.47
2023-05-19T08:23:38.645Z,102900.94
2023-05-19T08:26:13.002Z,102906.28
2023-05-19T08:28:39.686Z,102893.38
2023-05-19T08:31:06.375Z,102880.94
2023-05-19T08:33:32.973Z,102885.47
2023-05-19T08:36:00.074Z,102887.06
2023-05-19T08:38:28.602Z,102885.34
2023-05-19T08:40:55.594Z,102881.81
2023-05-19T08:43:22.567Z,102882.88
2023-05-19T08:45:50.098Z,102879.59
2023-05-19T08:48:18.785Z,102880.88
2023-05-19T08:50:57.198Z,102871.69
2023-05-19T08:53:33.781Z,102875.69
2023-05-19T08:56:20.041Z,102862.25
2023-05-19T08:58:48.976Z,102866.75
2023-05-19T09:01:18.845Z,102871.53
2023-05-19T09:03:46.998Z,102856.66
2023-05-19T09:06:14.442Z,102865.22
2023-05-19T09:08:42.355Z,102860.56
2023-05-19T09:11:10.273Z,102862.22
2023-05-19T09:13:37.266Z,102856.03
2023-05-19T09:18:58.830Z,102848.50
2023-05-19T09:21:31.692Z,102854.09
2023-05-19T09:23:59.528Z,102856.84
2023-05-19T09:26:37.405Z,102854.16
2023-05-19T09:29:12.059Z,102857.31
2023-05-19T09:31:39.081Z,102854.22
2023-05-19T09:34:12.873Z,102854.72
2023-05-19T09:36:41.696Z,102854.44
2023-05-19T09:39:15.884Z,102852.97
2023-05-19T09:41:43.059Z,102851.31
2023-05-19T09:44:15.232Z,102846.72
2023-05-19T09:46:49.890Z,102843.63
2023-05-19T09:49:27.006Z,102853.22
2023-05-19T09:51:57.369Z,102850.69
2023-05-19T09:54:24.910Z,102848.44
2023-05-19T09:56:57.947Z,102841.25
2023-05-19T09:59:26.245Z,102837.81
2023-05-19T10:04:52.149Z,102843.94
2023-05-19T10:07:21.310Z,102850.13
2023-05-19T10:09:50.162Z,102840.16
2023-05-19T10:12:18.133Z,102838.25
2023-05-19T10:14:45.349Z,102834.09
2023-05-19T10:17:12.950Z,102833.44
2023-05-19T10:19:41.241Z,102837.97
2023-05-19T10:22:07.862Z,102832.50
2023-05-19T10:24:34.518Z,102829.59
2023-05-19T10:27:05.631Z,102828.44
2023-05-19T10:29:38.043Z,102825.34
2023-05-19T10:32:14.184Z,102823.97
2023-05-19T10:35:24.412Z,102818.44
2023-05-19T10:38:17.842Z,102816.97
2023-05-19T10:40:59.195Z,102807.50
2023-05-19T10:43:38.503Z,102810.63
2023-05-19T10:46:06.661Z,102805.91
2023-05-19T10:48:36.803Z,102805.53
2023-05-19T10:51:04.680Z,102802.44
2023-05-19T10:53:32.530Z,102805.53
2023-05-19T10:56:04.791Z,102802.16
2023-05-19T10:58:40.261Z,102808.66
2023-05-19T11:01:11.788Z,102804.06
2023-05-19T11:03:57.885Z,102794.03
2023-05-19T11:06:28.702Z,102799.69
2023-05-19T11:09:15.582Z,102792.66
2023-05-19T11:11:49.369Z,102797.06
2023-05-19T11:14:21.681Z,102794.09
2023-05-19T11:16:52.406Z,102794.88
2023-05-19T11:19:27.483Z,102795.78
2023-05-19T11:21:56.566Z,102792.50
2023-05-19T11:24:46.565Z,102795.59
2023-05-19T11:27:32.831Z,102790.09
2023-05-19T11:30:12.026Z,102781.50
2023-05-19T11:32:39.659Z,102783.78
2023-05-19T11:35:08.055Z,102772.69
2023-05-19T11:37:35.783Z,102774.22
2023-05-19T11:40:08.878Z,102774.59
2023-05-19T11:42:37.122Z,102771.91
2023-05-19T11:45:04.958Z,102769.31
2023-05-19T11:47:46.468Z,102774.38
2023-05-19T11:50:22.127Z,102769.75
2023-05-19T11:52:48.914Z,102759.88
2023-05-19T11:55:16.740Z,102761.56
2023-05-19T11:58:02.962Z,102757.81
2023-05-19T12:00:37.751Z,102757.28
2023-05-19T12:03:04.774Z,102752.66
2023-05-19T12:05:34.487Z,102753.16
2023-05-19T12:08:03.213Z,102761.69
2023-05-19T12:10:34.335Z,102760.09
2023-05-19T12:13:02.125Z,102761.44
2023-05-19T12:15:28.746Z,102755.31
2023-05-19T12:18:02.354Z,102755.31
2023-05-19T12:20:35.853Z,102755.63
2023-05-19T12:23:04.108Z,102756.38
2023-05-19T12:25:31.937Z,102761.84
2023-05-19T12:28:00.343Z,102762.63
2023-05-19T12:30:29.182Z,102754.22
2023-05-19T12:32:57.840Z,102748.06
2023-05-19T12:35:29.329Z,102748.75
2023-05-19T12:37:56.370Z,102740.63
2023-05-19T12:40:23.237Z,102733.31
2023-05-19T12:42:53.425Z,102735.25
2023-05-19T12:45:23.454Z,102730.56
2023-05-19T12:47:51.216Z,102738.53
2023-05-19T12:50:18.368Z,102735.06
2023-05-19T12:52:48.087Z,102728.75
2023-05-19T12:55:16.644Z,102727.34
2023-05-19T12:57:50.748Z,102728.78
2023-05-19T13:00:22.972Z,102728.16
2023-05-19T13:03:04.996Z,102726.44
2023-05-19T13:05:37.228Z,102726.25
2023-05-19T13:08:09.606Z,102722.47
2023-05-19T13:10:38.318Z,102720.56
2023-05-19T13:13:06.101Z,102714.00
2023-05-19T13:15:35.754Z,102720.03
2023-05-19T13:18:06.394Z,102715.28
2023-05-19T13:20:33.735Z,102714.44
2023-05-19T13:23:00.863Z,102721.28
2023-05-19T13:25:28.182Z,102717.50
2023-05-19T13:27:55.305Z,102714.53
2023-05-19T13:30:22.830Z,102715.84
2023-05-19T13:32:49.522Z,102709.63
2023-05-19T13:35:16.175Z,102712.47
2023-05-19T13:37:42.912Z,102706.94
2023-05-19T13:40:10.962Z,102698.53
2023-05-19T13:42:38.394Z,102699.16
2023-05-19T13:45:05.856Z,102691.09
2023-05-19T13:47:32.658Z,102682.34
2023-05-19T13:49:59.403Z,102690.78
2023-05-19T13:52:28.346Z,102683.31
2023-05-19T13:54:57.693Z,102689.03
2023-05-19T13:57:26.772Z,102686.69
2023-05-19T14:00:06.066Z,102685.25
2023-05-19T14:02:33.913Z,102687.19
2023-05-19T14:05:03.074Z,102678.78
2023-05-19T14:07:30.768Z,102684.81
2023-05-19T14:09:58.087Z,102685.78
2023-05-19T14:12:35.416Z,102677.88
2023-05-19T14:15:07.278Z,102681.22
2023-05-19T14:17:35.083Z,102677.88
2023-05-19T14:20:01.744Z,102684.22
2023-05-19T14:22:28.398Z,102671.19
2023-05-19T14:24:55.286Z,102673.72
2023-05-19T14:27:21.851Z,102669.75
2023-05-19T14:29:49.105Z,102665.47
2023-05-19T14:32:16.692Z,102665.16
2023-05-19T14:34:43.417Z,102665.31
2023-05-19T14:37:10.023Z,102669.13
2023-05-19T14:39:36.766Z,102660.22
2023-05-19T14:42:03.496Z,102662.44
2023-05-19T14:44:32.974Z,102652.09
2023-05-19T14:47:01.271Z,102661.31
2023-05-19T14:49:28.161Z,102660.22
2023-05-19T14:51:54.825Z,102660.22
2023-05-19T14:54:21.528Z,102653.38
2023-05-19T14:56:48.418Z,102650.66
2023-05-19T14:59:15.015Z,102640.44
2023-05-19T15:01:41.814Z,102646.81
2023-05-19T15:04:08.493Z,102643.97
2023-05-19T15:06:35.411Z,102645.53
2023-05-19T15:09:02.121Z,102651.44
2023-05-19T15:11:28.710Z,102660.22
2023-05-19T15:13:55.569Z,102645.22
2023-05-19T15:16:22.178Z,102649.34
2023-05-19T15:18:48.826Z,102641.88
2023-05-19T15:21:15.646Z,102630.88
2023-05-19T15:23:42.295Z,102631.50
2023-05-19T15:26:08.997Z,102623.06
2023-05-19T15:28:35.734Z,102635.31
2023-05-19T15:31:02.385Z,102640.59
2023-05-19T15:33:29.107Z,102635.50
2023-05-19T15:35:56.892Z,102635.81
2023-05-19T15:38:23.376Z,102637.91
2023-05-19T15:40:49.902Z,102631.53
2023-05-19T15:43:17.455Z,102633.13
2023-05-19T15:45:44.135Z,102631.06
2023-05-19T15:48:11.535Z,102633.13
2023-05-19T15:50:38.430Z,102629.00
2023-05-19T15:53:07.782Z,102629.31
2023-05-19T15:55:34.501Z,102621.03
2023-05-19T15:58:01.187Z,102618.00
2023-05-19T16:00:27.773Z,102616.72
2023-05-19T16:02:54.722Z,102610.16
2023-05-19T16:05:21.522Z,102616.06
2023-05-19T16:07:48.201Z,102614.16
2023-05-19T16:10:15.121Z,102616.06
2023-05-19T16:12:41.780Z,102611.13
2023-05-19T16:15:08.886Z,102603.66
2023-05-19T16:17:36.227Z,102602.34
2023-05-19T16:20:03.166Z,102598.06
2023-05-19T16:22:30.569Z,102592.81
2023-05-19T16:24:57.213Z,102599.97
2023-05-19T16:27:23.843Z,102590.06
2023-05-19T16:29:50.838Z,102591.03
2023-05-19T16:32:18.898Z,102590.84
2023-05-19T16:34:45.598Z,102592.59
2023-05-19T16:37:12.574Z,102594.50
2023-05-19T16:39:40.285Z,102589.56
2023-05-19T16:42:07.120Z,102590.38
2023-05-19T16:44:36.035Z,102591.31
2023-05-19T16:47:02.750Z,102595.97
2023-05-19T16:49:29.716Z,102592.13
2023-05-19T16:51:56.810Z,102594.69
2023-05-19T16:54:23.581Z,102604.25
2023-05-19T16:56:51.376Z,102596.59
2023-05-19T16:59:19.423Z,102593.72
2023-05-19T17:01:46.263Z,102593.06
2023-05-19T17:04:13.392Z,102587.03
2023-05-19T17:06:40.178Z,102591.00
2023-05-19T17:09:06.809Z,102592.63
2023-05-19T17:11:33.790Z,102600.13
2023-05-19T17:14:02.100Z,102598.34
2023-05-19T17:16:28.740Z,102596.63
2023-05-19T17:18:55.582Z,102596.44
2023-05-19T17:21:22.166Z,102597.13
2023-05-19T17:23:49.447Z,102600.78
2023-05-19T17:26:16.451Z,102595.69
2023-05-19T17:28:43.150Z,102604.28
2023-05-19T17:31:12.829Z,102594.59
2023-05-19T17:33:39.685Z,102596.94
2023-05-19T17:36:07.491Z,102597.91
2023-05-19T17:38:34.520Z,102591.06
2023-05-19T17:41:09.776Z,102601.41
2023-05-19T17:43:37.602Z,102600.94
2023-05-19T17:46:04.885Z,102599.69
2023-05-19T17:48:32.149Z,102597.63
2023-05-19T17:50:59.151Z,102602.09
2023-05-19T17:53:26.476Z,102596.69
2023-05-19T17:55:58.803Z,102599.53
2023-05-19T17:58:26.109Z,102604.63
2023-05-19T18:00:53.862Z,102604.94
2023-05-19T18:03:23.977Z,102604.16
2023-05-19T18:05:51.296Z,102605.91
2023-05-19T18:08:18.431Z,102610.84
2023-05-19T18:10:46.126Z,102603.69
2023-05-19T18:13:16.048Z,102613.56
2023-05-19T18:15:42.857Z,102612.91
2023-05-19T18:18:10.968Z,102617.69
2023-05-19T18:20:44.296Z,102614.16
2023-05-19T18:23:11.111Z,102618.44
2023-05-19T18:25:38.163Z,102622.88
2023-05-19T18:28:04.972Z,102623.84
2023-05-19T18:30:31.875Z,102618.22
2023-05-19T18:33:02.178Z,102624.59
2023-05-19T18:35:29.124Z,102625.06
2023-05-19T18:37:57.091Z,102624.41
2023-05-19T18:40:24.082Z,102628.84
2023-05-19T18:42:50.997Z,102628.66
2023-05-19T18:45:17.598Z,102631.81
2023-05-19T18:47:44.309Z,102631.03
2023-05-19T18:50:11.014Z,102636.56
2023-05-19T18:52:37.623Z,102637.50
2023-05-19T18:55:04.949Z,102632.25
2023-05-19T18:57:31.789Z,102633.69
2023-05-19T18:59:58.475Z,102644.56
2023-05-19T19:02:25.089Z,102638.81
2023-05-19T19:04:51.733Z,102635.75
2023-05-19T19:07:18.710Z,102640.97
2023-05-19T19:09:45.568Z,102646.22
2023-05-19T19:12:12.230Z,102647.16
2023-05-19T19:14:39.241Z,102645.19
2023-05-19T19:17:06.193Z,102642.78
2023-05-19T19:19:33.160Z,102644.00
2023-05-19T19:22:00.040Z,102648.44
2023-05-19T19:24:28.782Z,102657.47
2023-05-19T19:26:55.424Z,102652.66
2023-05-19T19:29:22.252Z,102664.38
2023-05-19T19:31:49.089Z,102659.41
2023-05-19T19:34:15.980Z,102665.75
2023-05-19T19:36:42.607Z,102660.44
2023-05-19T19:39:09.488Z,102670.25
2023-05-19T19:41:36.809Z,102669.25
2023-05-19T19:44:03.755Z,102672.56
2023-05-19T19:46:30.595Z,102674.25
2023-05-19T19:49:00.389Z,102673.34
2023-05-19T19:51:28.055Z,102682.88
2023-05-19T19:53:55.049Z,102681.66
2023-05-19T19:56:24.542Z,102681.50
2023-05-19T19:58:51.625Z,102692.59
2023-05-19T20:01:20.463Z,102694.28
2023-05-19T20:03:48.156Z,102690.88
2023-05-19T20:06:14.980Z,102692.97
2023-05-19T20:08:41.682Z,102702.06
2023-05-19T20:11:08.416Z,102701.16
2023-05-19T20:13:35.018Z,102702.16
2023-05-19T20:16:01.607Z,102709.38
2023-05-19T20:18:29.879Z,102705.59
2023-05-19T20:20:56.879Z,102714.31
2023-05-19T20:23:23.488Z,102715.41
2023-05-19T20:26:09.357Z,102716.22
2023-05-19T20:28:36.620Z,102726.00
2023-05-19T20:31:03.357Z,102720.22
2023-05-19T20:33:30.015Z,102717.50
2023-05-19T20:35:56.706Z,102722.41
2023-05-19T20:38:23.488Z,102722.00
2023-05-19T20:40:51.057Z,102725.34
2023-05-19T20:43:17.738Z,102731.06
2023-05-19T20:45:44.852Z,102730.06
2023-05-19T20:48:11.895Z,102731.47
2023-05-19T20:50:39.731Z,102734.19
2023-05-19T20:53:07.538Z,102734.75
2023-05-19T20:55:36.174Z,102734.03
2023-05-19T20:58:03.113Z,102735.69
2023-05-19T21:00:30.706Z,102731.34
2023-05-19T21:02:57.913Z,102734.38
2023-05-19T21:05:25.021Z,102735.50
2023-05-19T21:07:51.654Z,102733.97
2023-05-19T21:10:18.441Z,102736.94
2023-05-19T21:12:45.437Z,102736.72
2023-05-19T21:15:12.183Z,102735.41
2023-05-19T21:17:38.757Z,102739.50
2023-05-19T21:20:06.017Z,102750.50
2023-05-19T21:22:32.736Z,102742.16
2023-05-19T21:24:59.348Z,102744.59
2023-05-19T21:27:25.962Z,102755.31
2023-05-19T21:29:54.981Z,102758.00
2023-05-19T21:32:22.079Z,102748.63
2023-05-19T21:34:49.050Z,102755.59
2023-05-19T21:37:17.342Z,102746.44
2023-05-19T21:39:44.535Z,102759.31
2023-05-19T21:42:11.381Z,102760.94
2023-05-19T21:44:38.239Z,102761.50
2023-05-19T21:47:04.886Z,102760.72
2023-05-19T21:49:31.666Z,102760.97
2023-05-19T21:51:58.696Z,102762.34
2023-05-19T21:54:25.516Z,102758.31
2023-05-19T21:56:52.181Z,102762.63
2023-05-19T21:59:19.574Z,102765.31
2023-05-19T22:01:46.836Z,102758.31
2023-05-19T22:04:15.973Z,102763.97
2023-05-19T22:06:43.323Z,102758.63
2023-05-19T22:09:10.381Z,102765.34
2023-05-19T22:11:37.009Z,102766.16
2023-05-19T22:14:03.559Z,102760.53
2023-05-19T22:16:31.218Z,102771.53
2023-05-19T22:18:58.185Z,102765.91
2023-05-19T22:21:24.906Z,102762.41
2023-05-19T22:23:52.734Z,102764.31
2023-05-19T22:26:19.369Z,102756.25
2023-05-19T22:28:45.907Z,102759.75
2023-05-19T22:31:12.494Z,102764.06
2023-05-19T22:33:39.005Z,102768.06
2023-05-19T22:36:05.811Z,102770.19
2023-05-19T22:38:32.506Z,102775.00
2023-05-19T22:40:59.083Z,102767.53
2023-05-19T22:43:25.859Z,102765.38
2023-05-19T22:45:52.566Z,102762.16
2023-05-19T22:48:19.387Z,102767.81
2023-05-19T22:50:46.258Z,102761.91
2023-05-19T22:53:12.838Z,102765.38
2023-05-19T22:55:39.584Z,102763.22
2023-05-19T22:58:06.782Z,102768.78
2023-05-19T23:00:33.381Z,102770.66
2023-05-19T23:03:00.275Z,102776.53
2023-05-19T23:05:26.918Z,102774.94
2023-05-19T23:07:53.582Z,102772.75
2023-05-19T23:10:20.234Z,102770.34
2023-05-19T23:12:46.940Z,102770.59
2023-05-19T23:15:13.532Z,102763.88
2023-05-19T23:17:40.069Z,102764.13
2023-05-19T23:20:07.335Z,102770.28
2023-05-19T23:22:34.264Z,102767.34
2023-05-19T23:25:05.701Z,102763.59
2023-05-19T23:27:32.733Z,102769.44
2023-05-19T23:29:59.399Z,102766.44
2023-05-19T23:32:26.044Z,102774.97
2023-05-19T23:34:52.628Z,102768.72
2023-05-19T23:37:19.204Z,102762.28
2023-05-19T23:39:45.800Z,102768.19
2023-05-19T23:42:13.267Z,102766.56
2023-05-19T23:44:39.940Z,102768.94
2023-05-19T23:47:06.819Z,102764.66
2023-05-19T23:49:33.633Z,102762.81
2023-05-19T23:52:00.177Z,102759.06
2023-05-19T23:54:26.748Z,102755.84
2023-05-19T23:56:54.875Z,102759.31
2023-05-19T23:59:21.451Z,102761.19
